sensor_id;sensor_type;location;lat;lon;timestamp;P1;durP1;ratioP1;P2;durP2;ratioP2
48578;SDS011;34357;51.948;6.132;2022-07-29T00:01:22;3.40;;;1.27;;
48578;SDS011;34357;51.948;6.132;2022-07-29T00:03:48;3.70;;;1.38;;
48578;SDS011;34357;51.948;6.132;2022-07-29T00:06:14;6.88;;;1.73;;
48578;SDS011;34357;51.948;6.132;2022-07-29T00:08:40;4.13;;;1.50;;
48578;SDS011;34357;51.948;6.132;2022-07-29T00:11:05;5.05;;;1.50;;
48578;SDS011;34357;51.948;6.132;2022-07-29T00:13:31;3.67;;;1.30;;
48578;SDS011;34357;51.948;6.132;2022-07-29T00:15:57;5.63;;;1.50;;
48578;SDS011;34357;51.948;6.132;2022-07-29T00:18:22;8.85;;;1.40;;
48578;SDS011;34357;51.948;6.132;2022-07-29T00:20:48;1.90;;;1.08;;
48578;SDS011;34357;51.948;6.132;2022-07-29T00:23:14;5.72;;;1.80;;
48578;SDS011;34357;51.948;6.132;2022-07-29T00:25:39;5.00;;;1.50;;
48578;SDS011;34357;51.948;6.132;2022-07-29T00:28:05;5.45;;;1.70;;
48578;SDS011;34357;51.948;6.132;2022-07-29T00:30:31;7.07;;;1.55;;
48578;SDS011;34357;51.948;6.132;2022-07-29T00:32:56;7.97;;;1.58;;
48578;SDS011;34357;51.948;6.132;2022-07-29T00:35:22;6.68;;;1.73;;
48578;SDS011;34357;51.948;6.132;2022-07-29T00:38:06;3.88;;;1.30;;
48578;SDS011;34357;51.948;6.132;2022-07-29T00:40:32;5.55;;;1.77;;
48578;SDS011;34357;51.948;6.132;2022-07-29T00:42:58;5.40;;;1.83;;
48578;SDS011;34357;51.948;6.132;2022-07-29T00:45:23;6.50;;;1.63;;
48578;SDS011;34357;51.948;6.132;2022-07-29T00:47:49;6.03;;;1.67;;
48578;SDS011;34357;51.948;6.132;2022-07-29T00:50:15;3.42;;;1.60;;
48578;SDS011;34357;51.948;6.132;2022-07-29T00:52:41;6.22;;;1.60;;
48578;SDS011;34357;51.948;6.132;2022-07-29T00:55:08;6.90;;;1.95;;
48578;SDS011;34357;51.948;6.132;2022-07-29T00:57:36;3.58;;;1.33;;
48578;SDS011;34357;51.948;6.132;2022-07-29T01:00:03;6.65;;;1.60;;
48578;SDS011;34357;51.948;6.132;2022-07-29T01:02:30;2.95;;;1.40;;
48578;SDS011;34357;51.948;6.132;2022-07-29T01:04:56;5.32;;;1.60;;
48578;SDS011;34357;51.948;6.132;2022-07-29T01:07:22;2.55;;;1.40;;
48578;SDS011;34357;51.948;6.132;2022-07-29T01:09:49;5.07;;;1.55;;
48578;SDS011;34357;51.948;6.132;2022-07-29T01:12:24;3.58;;;1.58;;
48578;SDS011;34357;51.948;6.132;2022-07-29T01:15:10;4.97;;;1.58;;
48578;SDS011;34357;51.948;6.132;2022-07-29T01:31:01;4.97;;;1.85;;
48578;SDS011;34357;51.948;6.132;2022-07-29T01:33:30;4.72;;;1.70;;
48578;SDS011;34357;51.948;6.132;2022-07-29T01:36:15;8.63;;;1.92;;
48578;SDS011;34357;51.948;6.132;2022-07-29T01:38:52;7.05;;;2.35;;
48578;SDS011;34357;51.948;6.132;2022-07-29T01:41:24;8.98;;;2.50;;
48578;SDS011;34357;51.948;6.132;2022-07-29T01:44:10;5.88;;;2.38;;
48578;SDS011;34357;51.948;6.132;2022-07-29T01:46:50;7.88;;;2.25;;
48578;SDS011;34357;51.948;6.132;2022-07-29T01:49:25;8.07;;;2.30;;
48578;SDS011;34357;51.948;6.132;2022-07-29T01:51:57;5.65;;;1.88;;
48578;SDS011;34357;51.948;6.132;2022-07-29T01:54:28;6.38;;;2.22;;
48578;SDS011;34357;51.948;6.132;2022-07-29T01:57:00;6.85;;;2.00;;
48578;SDS011;34357;51.948;6.132;2022-07-29T01:59:29;3.72;;;1.40;;
48578;SDS011;34357;51.948;6.132;2022-07-29T02:01:57;4.78;;;1.98;;
48578;SDS011;34357;51.948;6.132;2022-07-29T02:04:24;3.03;;;1.75;;
48578;SDS011;34357;51.948;6.132;2022-07-29T02:06:51;3.95;;;1.55;;
48578;SDS011;34357;51.948;6.132;2022-07-29T02:09:19;6.10;;;2.10;;
48578;SDS011;34357;51.948;6.132;2022-07-29T02:11:48;6.40;;;1.92;;
48578;SDS011;34357;51.948;6.132;2022-07-29T02:14:21;6.07;;;2.20;;
48578;SDS011;34357;51.948;6.132;2022-07-29T02:16:48;9.07;;;2.38;;
48578;SDS011;34357;51.948;6.132;2022-07-29T02:19:17;7.05;;;2.67;;
48578;SDS011;34357;51.948;6.132;2022-07-29T02:21:44;5.03;;;2.55;;
48578;SDS011;34357;51.948;6.132;2022-07-29T02:24:11;6.53;;;2.97;;
48578;SDS011;34357;51.948;6.132;2022-07-29T02:26:39;5.80;;;3.00;;
48578;SDS011;34357;51.948;6.132;2022-07-29T02:29:06;6.47;;;2.90;;
48578;SDS011;34357;51.948;6.132;2022-07-29T02:31:34;9.48;;;3.65;;
48578;SDS011;34357;51.948;6.132;2022-07-29T02:34:03;9.13;;;3.25;;
48578;SDS011;34357;51.948;6.132;2022-07-29T02:36:33;11.20;;;3.60;;
48578;SDS011;34357;51.948;6.132;2022-07-29T02:39:00;12.63;;;3.38;;
48578;SDS011;34357;51.948;6.132;2022-07-29T02:41:28;10.55;;;3.88;;
48578;SDS011;34357;51.948;6.132;2022-07-29T02:44:05;8.77;;;4.13;;
48578;SDS011;34357;51.948;6.132;2022-07-29T02:46:35;6.50;;;3.75;;
48578;SDS011;34357;51.948;6.132;2022-07-29T02:49:10;7.47;;;4.28;;
48578;SDS011;34357;51.948;6.132;2022-07-29T02:51:43;11.10;;;4.28;;
48578;SDS011;34357;51.948;6.132;2022-07-29T02:54:19;10.32;;;4.43;;
48578;SDS011;34357;51.948;6.132;2022-07-29T02:56:48;7.95;;;4.40;;
48578;SDS011;34357;51.948;6.132;2022-07-29T02:59:19;9.02;;;5.13;;
48578;SDS011;34357;51.948;6.132;2022-07-29T03:01:48;8.07;;;5.60;;
48578;SDS011;34357;51.948;6.132;2022-07-29T03:04:15;11.75;;;5.40;;
48578;SDS011;34357;51.948;6.132;2022-07-29T03:06:42;11.65;;;5.43;;
48578;SDS011;34357;51.948;6.132;2022-07-29T03:09:10;8.30;;;5.65;;
48578;SDS011;34357;51.948;6.132;2022-07-29T03:11:37;11.00;;;6.22;;
48578;SDS011;34357;51.948;6.132;2022-07-29T03:14:04;8.63;;;5.75;;
48578;SDS011;34357;51.948;6.132;2022-07-29T03:16:31;7.30;;;5.07;;
48578;SDS011;34357;51.948;6.132;2022-07-29T03:18:58;8.80;;;5.47;;
48578;SDS011;34357;51.948;6.132;2022-07-29T03:21:25;11.15;;;5.50;;
48578;SDS011;34357;51.948;6.132;2022-07-29T03:23:51;9.90;;;5.35;;
48578;SDS011;34357;51.948;6.132;2022-07-29T03:26:16;9.30;;;5.07;;
48578;SDS011;34357;51.948;6.132;2022-07-29T03:28:43;8.00;;;4.97;;
48578;SDS011;34357;51.948;6.132;2022-07-29T03:31:09;7.80;;;4.97;;
48578;SDS011;34357;51.948;6.132;2022-07-29T03:33:35;12.73;;;4.57;;
48578;SDS011;34357;51.948;6.132;2022-07-29T03:36:00;7.30;;;4.90;;
48578;SDS011;34357;51.948;6.132;2022-07-29T03:38:27;7.57;;;4.68;;
48578;SDS011;34357;51.948;6.132;2022-07-29T03:41:03;9.13;;;4.50;;
48578;SDS011;34357;51.948;6.132;2022-07-29T03:43:34;8.85;;;5.00;;
48578;SDS011;34357;51.948;6.132;2022-07-29T03:46:02;6.43;;;4.90;;
48578;SDS011;34357;51.948;6.132;2022-07-29T03:48:31;10.00;;;4.82;;
48578;SDS011;34357;51.948;6.132;2022-07-29T03:51:00;11.02;;;5.00;;
48578;SDS011;34357;51.948;6.132;2022-07-29T03:53:26;10.63;;;5.00;;
48578;SDS011;34357;51.948;6.132;2022-07-29T03:55:54;8.25;;;4.93;;
48578;SDS011;34357;51.948;6.132;2022-07-29T03:58:25;9.52;;;4.93;;
48578;SDS011;34357;51.948;6.132;2022-07-29T04:00:52;12.13;;;5.47;;
48578;SDS011;34357;51.948;6.132;2022-07-29T04:03:20;9.60;;;5.05;;
48578;SDS011;34357;51.948;6.132;2022-07-29T04:05:57;8.55;;;5.90;;
48578;SDS011;34357;51.948;6.132;2022-07-29T04:08:27;11.23;;;5.88;;
48578;SDS011;34357;51.948;6.132;2022-07-29T04:10:53;12.88;;;6.30;;
48578;SDS011;34357;51.948;6.132;2022-07-29T04:13:19;10.30;;;5.72;;
48578;SDS011;34357;51.948;6.132;2022-07-29T04:15:45;7.63;;;4.95;;
48578;SDS011;34357;51.948;6.132;2022-07-29T04:18:11;15.40;;;5.93;;
48578;SDS011;34357;51.948;6.132;2022-07-29T04:20:37;8.25;;;5.55;;
48578;SDS011;34357;51.948;6.132;2022-07-29T04:23:02;8.40;;;5.10;;
48578;SDS011;34357;51.948;6.132;2022-07-29T04:25:28;7.18;;;4.93;;
48578;SDS011;34357;51.948;6.132;2022-07-29T04:27:53;9.07;;;5.30;;
48578;SDS011;34357;51.948;6.132;2022-07-29T04:32:51;9.57;;;5.13;;
48578;SDS011;34357;51.948;6.132;2022-07-29T04:35:17;8.52;;;5.28;;
48578;SDS011;34357;51.948;6.132;2022-07-29T04:37:43;9.45;;;4.70;;
48578;SDS011;34357;51.948;6.132;2022-07-29T04:40:09;6.35;;;4.55;;
48578;SDS011;34357;51.948;6.132;2022-07-29T04:42:35;7.18;;;4.93;;
48578;SDS011;34357;51.948;6.132;2022-07-29T04:45:01;11.10;;;4.55;;
48578;SDS011;34357;51.948;6.132;2022-07-29T04:47:26;8.23;;;4.50;;
48578;SDS011;34357;51.948;6.132;2022-07-29T04:49:52;8.10;;;4.82;;
48578;SDS011;34357;51.948;6.132;2022-07-29T04:52:18;8.05;;;4.38;;
48578;SDS011;34357;51.948;6.132;2022-07-29T04:54:43;10.93;;;4.93;;
48578;SDS011;34357;51.948;6.132;2022-07-29T04:57:09;14.73;;;5.43;;
48578;SDS011;34357;51.948;6.132;2022-07-29T04:59:35;10.02;;;4.40;;
48578;SDS011;34357;51.948;6.132;2022-07-29T05:02:00;8.65;;;4.57;;
48578;SDS011;34357;51.948;6.132;2022-07-29T05:04:26;5.60;;;4.40;;
48578;SDS011;34357;51.948;6.132;2022-07-29T05:06:51;5.88;;;4.35;;
48578;SDS011;34357;51.948;6.132;2022-07-29T05:09:17;9.77;;;4.72;;
48578;SDS011;34357;51.948;6.132;2022-07-29T05:11:43;6.50;;;4.65;;
48578;SDS011;34357;51.948;6.132;2022-07-29T05:14:09;8.52;;;3.63;;
48578;SDS011;34357;51.948;6.132;2022-07-29T05:16:34;8.95;;;4.65;;
48578;SDS011;34357;51.948;6.132;2022-07-29T05:19:00;11.00;;;4.82;;
48578;SDS011;34357;51.948;6.132;2022-07-29T05:21:26;5.90;;;4.15;;
48578;SDS011;34357;51.948;6.132;2022-07-29T05:23:51;6.65;;;4.80;;
48578;SDS011;34357;51.948;6.132;2022-07-29T05:26:17;8.23;;;4.55;;
48578;SDS011;34357;51.948;6.132;2022-07-29T05:28:43;5.35;;;4.00;;
48578;SDS011;34357;51.948;6.132;2022-07-29T05:31:08;8.27;;;4.28;;
48578;SDS011;34357;51.948;6.132;2022-07-29T05:33:34;7.40;;;4.53;;
48578;SDS011;34357;51.948;6.132;2022-07-29T05:36:00;12.05;;;5.20;;
48578;SDS011;34357;51.948;6.132;2022-07-29T05:38:25;6.60;;;4.80;;
48578;SDS011;34357;51.948;6.132;2022-07-29T05:40:51;9.27;;;4.22;;
48578;SDS011;34357;51.948;6.132;2022-07-29T05:43:17;7.88;;;4.38;;
48578;SDS011;34357;51.948;6.132;2022-07-29T05:45:42;8.40;;;4.80;;
48578;SDS011;34357;51.948;6.132;2022-07-29T05:48:08;8.60;;;4.47;;
48578;SDS011;34357;51.948;6.132;2022-07-29T05:50:34;8.82;;;4.70;;
48578;SDS011;34357;51.948;6.132;2022-07-29T05:52:59;8.98;;;4.50;;
48578;SDS011;34357;51.948;6.132;2022-07-29T05:55:25;10.10;;;5.10;;
48578;SDS011;34357;51.948;6.132;2022-07-29T05:57:51;10.43;;;5.15;;
48578;SDS011;34357;51.948;6.132;2022-07-29T06:00:17;9.75;;;4.25;;
48578;SDS011;34357;51.948;6.132;2022-07-29T06:02:43;9.02;;;4.15;;
48578;SDS011;34357;51.948;6.132;2022-07-29T06:05:08;7.65;;;4.32;;
48578;SDS011;34357;51.948;6.132;2022-07-29T06:07:34;9.45;;;4.63;;
48578;SDS011;34357;51.948;6.132;2022-07-29T06:10:00;6.55;;;4.70;;
48578;SDS011;34357;51.948;6.132;2022-07-29T06:12:26;6.05;;;4.75;;
48578;SDS011;34357;51.948;6.132;2022-07-29T06:14:51;9.48;;;4.93;;
48578;SDS011;34357;51.948;6.132;2022-07-29T06:17:17;8.07;;;4.40;;
48578;SDS011;34357;51.948;6.132;2022-07-29T06:19:43;9.07;;;4.65;;
48578;SDS011;34357;51.948;6.132;2022-07-29T06:22:08;8.23;;;4.22;;
48578;SDS011;34357;51.948;6.132;2022-07-29T06:24:35;6.57;;;4.30;;
48578;SDS011;34357;51.948;6.132;2022-07-29T06:27:02;8.75;;;4.40;;
48578;SDS011;34357;51.948;6.132;2022-07-29T06:29:28;7.50;;;4.10;;
48578;SDS011;34357;51.948;6.132;2022-07-29T06:31:54;5.85;;;3.75;;
48578;SDS011;34357;51.948;6.132;2022-07-29T06:34:19;9.98;;;4.07;;
48578;SDS011;34357;51.948;6.132;2022-07-29T06:36:45;9.02;;;4.68;;
48578;SDS011;34357;51.948;6.132;2022-07-29T06:39:11;6.60;;;3.58;;
48578;SDS011;34357;51.948;6.132;2022-07-29T06:41:36;8.48;;;3.95;;
48578;SDS011;34357;51.948;6.132;2022-07-29T06:44:08;5.18;;;3.70;;
48578;SDS011;34357;51.948;6.132;2022-07-29T06:46:34;7.15;;;3.90;;
48578;SDS011;34357;51.948;6.132;2022-07-29T06:49:00;6.78;;;3.78;;
48578;SDS011;34357;51.948;6.132;2022-07-29T06:51:27;7.68;;;4.13;;
48578;SDS011;34357;51.948;6.132;2022-07-29T06:53:52;8.15;;;4.03;;
48578;SDS011;34357;51.948;6.132;2022-07-29T06:56:18;5.47;;;3.80;;
48578;SDS011;34357;51.948;6.132;2022-07-29T06:58:44;12.50;;;4.43;;
48578;SDS011;34357;51.948;6.132;2022-07-29T07:01:09;11.57;;;4.03;;
48578;SDS011;34357;51.948;6.132;2022-07-29T07:03:35;6.65;;;3.95;;
48578;SDS011;34357;51.948;6.132;2022-07-29T07:06:01;7.63;;;3.63;;
48578;SDS011;34357;51.948;6.132;2022-07-29T07:08:27;9.07;;;3.47;;
48578;SDS011;34357;51.948;6.132;2022-07-29T07:10:52;6.32;;;3.45;;
48578;SDS011;34357;51.948;6.132;2022-07-29T07:13:20;5.60;;;3.25;;
48578;SDS011;34357;51.948;6.132;2022-07-29T07:15:46;4.88;;;3.55;;
48578;SDS011;34357;51.948;6.132;2022-07-29T07:18:16;6.82;;;3.85;;
48578;SDS011;34357;51.948;6.132;2022-07-29T07:20:42;6.00;;;3.38;;
48578;SDS011;34357;51.948;6.132;2022-07-29T07:23:08;5.65;;;3.03;;
48578;SDS011;34357;51.948;6.132;2022-07-29T07:25:34;5.40;;;3.33;;
48578;SDS011;34357;51.948;6.132;2022-07-29T07:27:59;8.52;;;3.30;;
48578;SDS011;34357;51.948;6.132;2022-07-29T07:30:25;13.77;;;3.95;;
48578;SDS011;34357;51.948;6.132;2022-07-29T07:32:52;9.00;;;4.60;;
48578;SDS011;34357;51.948;6.132;2022-07-29T07:35:18;9.18;;;4.10;;
48578;SDS011;34357;51.948;6.132;2022-07-29T07:37:44;4.00;;;3.28;;
48578;SDS011;34357;51.948;6.132;2022-07-29T07:40:10;7.10;;;3.53;;
48578;SDS011;34357;51.948;6.132;2022-07-29T07:42:37;5.75;;;3.63;;
48578;SDS011;34357;51.948;6.132;2022-07-29T07:45:03;10.35;;;3.28;;
48578;SDS011;34357;51.948;6.132;2022-07-29T07:47:31;6.65;;;3.80;;
48578;SDS011;34357;51.948;6.132;2022-07-29T07:49:57;8.23;;;3.70;;
48578;SDS011;34357;51.948;6.132;2022-07-29T07:52:23;9.63;;;4.22;;
48578;SDS011;34357;51.948;6.132;2022-07-29T07:54:48;10.50;;;3.60;;
48578;SDS011;34357;51.948;6.132;2022-07-29T07:57:15;7.30;;;3.50;;
48578;SDS011;34357;51.948;6.132;2022-07-29T07:59:41;5.45;;;3.10;;
48578;SDS011;34357;51.948;6.132;2022-07-29T08:02:07;7.70;;;3.85;;
48578;SDS011;34357;51.948;6.132;2022-07-29T08:04:34;8.88;;;3.67;;
48578;SDS011;34357;51.948;6.132;2022-07-29T08:07:00;9.60;;;3.80;;
48578;SDS011;34357;51.948;6.132;2022-07-29T08:09:27;9.27;;;3.92;;
48578;SDS011;34357;51.948;6.132;2022-07-29T08:11:54;5.40;;;3.67;;
48578;SDS011;34357;51.948;6.132;2022-07-29T08:14:20;7.25;;;3.58;;
48578;SDS011;34357;51.948;6.132;2022-07-29T08:16:46;8.30;;;3.92;;
48578;SDS011;34357;51.948;6.132;2022-07-29T08:19:12;7.65;;;3.47;;
48578;SDS011;34357;51.948;6.132;2022-07-29T08:21:38;25.20;;;5.53;;
48578;SDS011;34357;51.948;6.132;2022-07-29T08:24:04;8.68;;;3.78;;
48578;SDS011;34357;51.948;6.132;2022-07-29T08:26:49;11.18;;;3.85;;
48578;SDS011;34357;51.948;6.132;2022-07-29T08:29:15;10.63;;;4.15;;
48578;SDS011;34357;51.948;6.132;2022-07-29T08:31:41;5.47;;;3.60;;
48578;SDS011;34357;51.948;6.132;2022-07-29T08:34:07;6.70;;;3.75;;
48578;SDS011;34357;51.948;6.132;2022-07-29T08:36:36;7.90;;;3.90;;
48578;SDS011;34357;51.948;6.132;2022-07-29T08:39:02;5.38;;;3.53;;
48578;SDS011;34357;51.948;6.132;2022-07-29T08:41:28;6.47;;;3.40;;
48578;SDS011;34357;51.948;6.132;2022-07-29T08:43:54;7.20;;;3.80;;
48578;SDS011;34357;51.948;6.132;2022-07-29T08:46:20;9.55;;;3.92;;
48578;SDS011;34357;51.948;6.132;2022-07-29T08:48:46;10.02;;;4.18;;
48578;SDS011;34357;51.948;6.132;2022-07-29T08:51:13;8.52;;;4.07;;
48578;SDS011;34357;51.948;6.132;2022-07-29T08:53:44;10.73;;;3.58;;
48578;SDS011;34357;51.948;6.132;2022-07-29T08:56:13;8.77;;;3.80;;
48578;SDS011;34357;51.948;6.132;2022-07-29T08:58:41;8.88;;;3.60;;
48578;SDS011;34357;51.948;6.132;2022-07-29T09:01:07;8.68;;;3.50;;
48578;SDS011;34357;51.948;6.132;2022-07-29T09:03:36;8.68;;;4.70;;
48578;SDS011;34357;51.948;6.132;2022-07-29T09:06:03;9.35;;;4.38;;
48578;SDS011;34357;51.948;6.132;2022-07-29T09:08:32;7.80;;;4.07;;
48578;SDS011;34357;51.948;6.132;2022-07-29T09:11:00;8.52;;;4.32;;
48578;SDS011;34357;51.948;6.132;2022-07-29T09:13:26;7.25;;;4.22;;
48578;SDS011;34357;51.948;6.132;2022-07-29T09:15:52;7.03;;;4.18;;
48578;SDS011;34357;51.948;6.132;2022-07-29T09:21:10;9.55;;;4.53;;
48578;SDS011;34357;51.948;6.132;2022-07-29T09:24:06;12.90;;;4.15;;
48578;SDS011;34357;51.948;6.132;2022-07-29T09:26:37;7.22;;;4.45;;
48578;SDS011;34357;51.948;6.132;2022-07-29T09:29:23;9.25;;;3.83;;
48578;SDS011;34357;51.948;6.132;2022-07-29T09:31:51;8.18;;;4.40;;
48578;SDS011;34357;51.948;6.132;2022-07-29T09:34:27;10.07;;;3.95;;
48578;SDS011;34357;51.948;6.132;2022-07-29T09:36:55;9.10;;;4.50;;
48578;SDS011;34357;51.948;6.132;2022-07-29T09:39:32;11.35;;;4.40;;
48578;SDS011;34357;51.948;6.132;2022-07-29T09:44:42;6.22;;;3.60;;
48578;SDS011;34357;51.948;6.132;2022-07-29T09:47:13;7.25;;;3.35;;
48578;SDS011;34357;51.948;6.132;2022-07-29T09:49:59;8.15;;;3.83;;
48578;SDS011;34357;51.948;6.132;2022-07-29T09:52:28;7.63;;;3.70;;
48578;SDS011;34357;51.948;6.132;2022-07-29T09:55:08;6.20;;;3.58;;
48578;SDS011;34357;51.948;6.132;2022-07-29T09:57:35;6.22;;;3.45;;
48578;SDS011;34357;51.948;6.132;2022-07-29T10:00:05;5.32;;;3.10;;
48578;SDS011;34357;51.948;6.132;2022-07-29T10:02:39;5.60;;;3.35;;
48578;SDS011;34357;51.948;6.132;2022-07-29T10:05:16;8.77;;;3.67;;
48578;SDS011;34357;51.948;6.132;2022-07-29T10:07:46;8.27;;;3.72;;
48578;SDS011;34357;51.948;6.132;2022-07-29T10:10:29;8.95;;;3.80;;
48578;SDS011;34357;51.948;6.132;2022-07-29T10:13:00;7.93;;;3.30;;
48578;SDS011;34357;51.948;6.132;2022-07-29T10:15:28;8.27;;;3.92;;
48578;SDS011;34357;51.948;6.132;2022-07-29T10:17:57;9.05;;;3.42;;
48578;SDS011;34357;51.948;6.132;2022-07-29T10:20:24;4.57;;;3.20;;
48578;SDS011;34357;51.948;6.132;2022-07-29T10:22:51;7.97;;;3.58;;
48578;SDS011;34357;51.948;6.132;2022-07-29T10:25:18;8.18;;;2.90;;
48578;SDS011;34357;51.948;6.132;2022-07-29T10:27:45;8.65;;;3.50;;
48578;SDS011;34357;51.948;6.132;2022-07-29T10:30:13;7.22;;;3.13;;
48578;SDS011;34357;51.948;6.132;2022-07-29T10:35:21;4.82;;;3.38;;
48578;SDS011;34357;51.948;6.132;2022-07-29T10:38:14;8.68;;;3.42;;
48578;SDS011;34357;51.948;6.132;2022-07-29T10:46:52;5.43;;;3.08;;
48578;SDS011;34357;51.948;6.132;2022-07-29T10:49:20;7.30;;;3.70;;
48578;SDS011;34357;51.948;6.132;2022-07-29T10:51:55;6.40;;;3.17;;
48578;SDS011;34357;51.948;6.132;2022-07-29T10:59:46;6.15;;;3.63;;
48578;SDS011;34357;51.948;6.132;2022-07-29T11:05:03;7.78;;;3.47;;
48578;SDS011;34357;51.948;6.132;2022-07-29T11:07:31;8.48;;;3.50;;
48578;SDS011;34357;51.948;6.132;2022-07-29T11:15:06;8.68;;;3.65;;
48578;SDS011;34357;51.948;6.132;2022-07-29T11:22:58;8.90;;;2.78;;
48578;SDS011;34357;51.948;6.132;2022-07-29T11:25:25;6.60;;;4.07;;
48578;SDS011;34357;51.948;6.132;2022-07-29T11:27:52;7.13;;;3.35;;
48578;SDS011;34357;51.948;6.132;2022-07-29T11:30:19;5.78;;;2.58;;
48578;SDS011;34357;51.948;6.132;2022-07-29T11:32:45;9.55;;;2.70;;
48578;SDS011;34357;51.948;6.132;2022-07-29T11:37:42;4.43;;;2.80;;
48578;SDS011;34357;51.948;6.132;2022-07-29T11:40:09;7.18;;;2.90;;
48578;SDS011;34357;51.948;6.132;2022-07-29T11:45:17;6.13;;;3.00;;
48578;SDS011;34357;51.948;6.132;2022-07-29T11:50:11;6.28;;;2.58;;
48578;SDS011;34357;51.948;6.132;2022-07-29T11:52:40;11.57;;;2.55;;
48578;SDS011;34357;51.948;6.132;2022-07-29T11:55:18;9.70;;;2.88;;
48578;SDS011;34357;51.948;6.132;2022-07-29T12:00:24;5.00;;;2.72;;
48578;SDS011;34357;51.948;6.132;2022-07-29T12:02:56;9.52;;;3.22;;
48578;SDS011;34357;51.948;6.132;2022-07-29T12:08:19;9.07;;;2.33;;
48578;SDS011;34357;51.948;6.132;2022-07-29T12:10:47;5.95;;;2.00;;
48578;SDS011;34357;51.948;6.132;2022-07-29T12:13:15;8.30;;;2.22;;
48578;SDS011;34357;51.948;6.132;2022-07-29T12:15:51;6.32;;;2.08;;
48578;SDS011;34357;51.948;6.132;2022-07-29T12:18:18;4.43;;;1.95;;
48578;SDS011;34357;51.948;6.132;2022-07-29T12:20:47;5.43;;;2.15;;
48578;SDS011;34357;51.948;6.132;2022-07-29T12:23:13;7.00;;;2.15;;
48578;SDS011;34357;51.948;6.132;2022-07-29T12:25:42;7.63;;;1.90;;
48578;SDS011;34357;51.948;6.132;2022-07-29T12:28:12;4.70;;;2.03;;
48578;SDS011;34357;51.948;6.132;2022-07-29T12:30:47;7.85;;;2.40;;
48578;SDS011;34357;51.948;6.132;2022-07-29T12:33:18;8.95;;;2.08;;
48578;SDS011;34357;51.948;6.132;2022-07-29T12:35:50;4.85;;;1.70;;
48578;SDS011;34357;51.948;6.132;2022-07-29T12:38:21;3.90;;;1.77;;
48578;SDS011;34357;51.948;6.132;2022-07-29T12:40:47;8.18;;;2.00;;
48578;SDS011;34357;51.948;6.132;2022-07-29T12:43:18;7.35;;;2.10;;
48578;SDS011;34357;51.948;6.132;2022-07-29T12:48:12;6.78;;;1.80;;
48578;SDS011;34357;51.948;6.132;2022-07-29T12:50:58;7.05;;;1.85;;
48578;SDS011;34357;51.948;6.132;2022-07-29T12:53:25;5.40;;;1.80;;
48578;SDS011;34357;51.948;6.132;2022-07-29T12:55:53;5.13;;;1.42;;
48578;SDS011;34357;51.948;6.132;2022-07-29T12:58:27;5.63;;;1.85;;
48578;SDS011;34357;51.948;6.132;2022-07-29T13:11:44;7.32;;;1.80;;
48578;SDS011;34357;51.948;6.132;2022-07-29T13:14:29;5.28;;;1.50;;
48578;SDS011;34357;51.948;6.132;2022-07-29T13:17:06;4.95;;;1.88;;
48578;SDS011;34357;51.948;6.132;2022-07-29T13:20:04;5.82;;;1.90;;
48578;SDS011;34357;51.948;6.132;2022-07-29T13:22:30;5.15;;;1.40;;
48578;SDS011;34357;51.948;6.132;2022-07-29T13:24:57;7.47;;;1.48;;
48578;SDS011;34357;51.948;6.132;2022-07-29T13:27:28;5.55;;;1.40;;
48578;SDS011;34357;51.948;6.132;2022-07-29T13:29:58;4.95;;;1.50;;
48578;SDS011;34357;51.948;6.132;2022-07-29T13:32:26;6.30;;;1.63;;
48578;SDS011;34357;51.948;6.132;2022-07-29T13:34:53;6.20;;;1.45;;
48578;SDS011;34357;51.948;6.132;2022-07-29T13:37:18;5.40;;;1.63;;
48578;SDS011;34357;51.948;6.132;2022-07-29T13:39:44;3.67;;;1.30;;
48578;SDS011;34357;51.948;6.132;2022-07-29T13:42:10;9.13;;;1.80;;
48578;SDS011;34357;51.948;6.132;2022-07-29T13:44:39;5.25;;;1.40;;
48578;SDS011;34357;51.948;6.132;2022-07-29T13:47:07;3.97;;;1.60;;
48578;SDS011;34357;51.948;6.132;2022-07-29T13:49:33;5.07;;;1.60;;
48578;SDS011;34357;51.948;6.132;2022-07-29T13:51:58;7.50;;;1.70;;
48578;SDS011;34357;51.948;6.132;2022-07-29T13:54:24;10.85;;;1.42;;
48578;SDS011;34357;51.948;6.132;2022-07-29T13:56:50;9.27;;;1.67;;
48578;SDS011;34357;51.948;6.132;2022-07-29T13:59:16;6.22;;;1.58;;
48578;SDS011;34357;51.948;6.132;2022-07-29T14:01:42;3.70;;;1.60;;
48578;SDS011;34357;51.948;6.132;2022-07-29T14:04:08;5.18;;;1.67;;
48578;SDS011;34357;51.948;6.132;2022-07-29T14:06:35;5.20;;;1.70;;
48578;SDS011;34357;51.948;6.132;2022-07-29T14:09:01;4.15;;;1.60;;
48578;SDS011;34357;51.948;6.132;2022-07-29T14:11:31;6.35;;;1.50;;
48578;SDS011;34357;51.948;6.132;2022-07-29T14:13:57;5.32;;;1.80;;
48578;SDS011;34357;51.948;6.132;2022-07-29T14:16:23;4.15;;;1.52;;
48578;SDS011;34357;51.948;6.132;2022-07-29T14:18:49;5.05;;;1.60;;
48578;SDS011;34357;51.948;6.132;2022-07-29T14:21:14;2.88;;;1.45;;
48578;SDS011;34357;51.948;6.132;2022-07-29T14:23:40;8.55;;;1.67;;
48578;SDS011;34357;51.948;6.132;2022-07-29T14:26:06;2.35;;;1.10;;
48578;SDS011;34357;51.948;6.132;2022-07-29T14:28:32;6.43;;;1.45;;
48578;SDS011;34357;51.948;6.132;2022-07-29T14:30:58;4.93;;;1.92;;
48578;SDS011;34357;51.948;6.132;2022-07-29T14:33:23;7.53;;;1.77;;
48578;SDS011;34357;51.948;6.132;2022-07-29T14:35:49;4.82;;;1.50;;
48578;SDS011;34357;51.948;6.132;2022-07-29T14:38:15;5.18;;;1.60;;
48578;SDS011;34357;51.948;6.132;2022-07-29T14:40:40;4.90;;;1.65;;
48578;SDS011;34357;51.948;6.132;2022-07-29T14:43:06;5.15;;;1.20;;
48578;SDS011;34357;51.948;6.132;2022-07-29T14:45:32;3.90;;;1.05;;
48578;SDS011;34357;51.948;6.132;2022-07-29T14:47:57;4.88;;;1.70;;
48578;SDS011;34357;51.948;6.132;2022-07-29T14:50:24;3.80;;;1.30;;
48578;SDS011;34357;51.948;6.132;2022-07-29T14:52:51;4.07;;;1.30;;
48578;SDS011;34357;51.948;6.132;2022-07-29T14:55:17;5.22;;;1.58;;
48578;SDS011;34357;51.948;6.132;2022-07-29T14:57:43;4.38;;;1.48;;
48578;SDS011;34357;51.948;6.132;2022-07-29T15:00:09;3.85;;;1.48;;
48578;SDS011;34357;51.948;6.132;2022-07-29T15:02:36;4.05;;;1.58;;
48578;SDS011;34357;51.948;6.132;2022-07-29T15:05:02;2.70;;;1.40;;
48578;SDS011;34357;51.948;6.132;2022-07-29T15:07:28;4.78;;;1.42;;
48578;SDS011;34357;51.948;6.132;2022-07-29T15:09:56;4.82;;;1.40;;
48578;SDS011;34357;51.948;6.132;2022-07-29T15:12:21;5.70;;;1.45;;
48578;SDS011;34357;51.948;6.132;2022-07-29T15:14:47;3.90;;;1.60;;
48578;SDS011;34357;51.948;6.132;2022-07-29T15:17:15;2.75;;;1.30;;
48578;SDS011;34357;51.948;6.132;2022-07-29T15:19:41;2.55;;;1.38;;
48578;SDS011;34357;51.948;6.132;2022-07-29T15:22:07;2.70;;;1.13;;
48578;SDS011;34357;51.948;6.132;2022-07-29T15:24:32;5.13;;;1.38;;
48578;SDS011;34357;51.948;6.132;2022-07-29T15:26:59;4.60;;;1.52;;
48578;SDS011;34357;51.948;6.132;2022-07-29T15:29:24;4.65;;;1.35;;
48578;SDS011;34357;51.948;6.132;2022-07-29T15:31:50;3.80;;;1.30;;
48578;SDS011;34357;51.948;6.132;2022-07-29T15:34:16;4.80;;;1.45;;
48578;SDS011;34357;51.948;6.132;2022-07-29T15:36:41;4.07;;;1.60;;
48578;SDS011;34357;51.948;6.132;2022-07-29T15:39:07;2.00;;;1.20;;
48578;SDS011;34357;51.948;6.132;2022-07-29T15:41:34;4.85;;;1.27;;
48578;SDS011;34357;51.948;6.132;2022-07-29T15:43:59;4.72;;;1.55;;
48578;SDS011;34357;51.948;6.132;2022-07-29T15:46:25;3.83;;;1.35;;
48578;SDS011;34357;51.948;6.132;2022-07-29T15:49:10;3.95;;;1.60;;
48578;SDS011;34357;51.948;6.132;2022-07-29T15:51:35;3.75;;;1.63;;
48578;SDS011;34357;51.948;6.132;2022-07-29T15:54:02;3.70;;;1.30;;
48578;SDS011;34357;51.948;6.132;2022-07-29T15:56:28;2.90;;;1.48;;
48578;SDS011;34357;51.948;6.132;2022-07-29T15:58:54;4.57;;;1.65;;
48578;SDS011;34357;51.948;6.132;2022-07-29T16:01:20;3.78;;;1.65;;
48578;SDS011;34357;51.948;6.132;2022-07-29T16:03:46;4.30;;;1.60;;
48578;SDS011;34357;51.948;6.132;2022-07-29T16:06:12;3.90;;;1.60;;